createdAt,value
2022-08-16T00:04:54.543Z,15.63
2022-08-16T00:07:29.293Z,15.80
2022-08-16T00:09:56.878Z,17.00
2022-08-16T00:12:24.159Z,17.27
2022-08-16T00:14:56.819Z,18.80
2022-08-16T00:17:24.741Z,17.73
2022-08-16T00:19:53.537Z,18.73
2022-08-16T00:22:21.229Z,15.48
2022-08-16T00:24:52.162Z,16.63
2022-08-16T00:27:18.915Z,17.70
2022-08-16T00:29:46.224Z,16.20
2022-08-16T00:37:04.565Z,17.05
2022-08-16T00:39:31.656Z,17.75
2022-08-16T00:41:58.483Z,21.85
2022-08-16T00:44:31.911Z,17.70
2022-08-16T00:49:30.794Z,19.05
2022-08-16T00:54:32.983Z,18.73
2022-08-16T00:57:02.525Z,19.88
2022-08-16T00:59:32.897Z,19.35
2022-08-16T01:02:31.661Z,19.08
2022-08-16T01:09:42.798Z,21.42
2022-08-16T01:17:14.562Z,20.38
2022-08-16T01:19:46.373Z,21.08
2022-08-16T01:25:16.537Z,16.50
2022-08-16T01:27:45.808Z,21.67
2022-08-16T01:30:26.694Z,20.05
2022-08-16T01:33:02.846Z,16.85
2022-08-16T01:35:44.430Z,18.70
2022-08-16T01:38:29.356Z,17.73
2022-08-16T01:41:02.622Z,20.80
2022-08-16T01:53:19.933Z,20.02
2022-08-16T01:58:30.271Z,19.70
2022-08-16T02:00:57.648Z,16.70
2022-08-16T02:03:26.650Z,17.27
2022-08-16T02:05:53.771Z,17.75
2022-08-16T02:08:32.703Z,19.08
2022-08-16T02:13:27.936Z,19.92
2022-08-16T02:16:00.350Z,18.33
2022-08-16T02:25:52.769Z,20.33
2022-08-16T02:28:23.315Z,20.23
2022-08-16T02:35:53.935Z,17.77
2022-08-16T02:38:27.920Z,19.02
2022-08-16T02:40:55.035Z,17.27
2022-08-16T02:43:26.818Z,21.58
2022-08-16T02:45:54.460Z,19.38
2022-08-16T02:48:29.329Z,21.15
2022-08-16T02:58:14.933Z,18.05
2022-08-16T03:00:45.462Z,19.80
2022-08-16T03:03:17.825Z,21.02
2022-08-16T03:05:52.186Z,15.65
2022-08-16T03:13:12.890Z,17.83
2022-08-16T03:15:41.735Z,19.38
2022-08-16T03:18:18.556Z,16.67
2022-08-16T03:20:45.570Z,16.50
2022-08-16T03:23:23.452Z,16.15
2022-08-16T03:25:50.192Z,19.13
2022-08-16T03:28:18.616Z,17.65
2022-08-16T03:30:47.580Z,14.02
2022-08-16T03:43:19.866Z,14.95
2022-08-16T03:45:47.645Z,17.15
2022-08-16T03:48:15.161Z,16.23
2022-08-16T03:50:59.535Z,15.57
2022-08-16T03:53:37.889Z,13.93
2022-08-16T03:56:07.729Z,14.27
2022-08-16T03:58:45.514Z,19.33
2022-08-16T04:01:15.333Z,20.95
2022-08-16T04:03:43.202Z,21.67
2022-08-16T04:06:11.155Z,18.73
2022-08-16T04:08:39.662Z,18.75
2022-08-16T04:11:06.435Z,20.73
2022-08-16T04:16:01.790Z,23.88
2022-08-16T04:18:36.971Z,18.70
2022-08-16T04:21:05.002Z,19.23
2022-08-16T04:23:32.940Z,18.42
2022-08-16T04:33:17.922Z,19.25
2022-08-16T04:40:50.211Z,20.38
2022-08-16T04:43:18.771Z,26.92
2022-08-16T04:50:37.907Z,21.60
2022-08-16T05:00:34.371Z,25.92
2022-08-16T05:10:30.619Z,30.40
2022-08-16T05:15:28.045Z,22.27
2022-08-16T05:17:59.046Z,26.58
2022-08-16T05:22:53.018Z,24.50
2022-08-16T05:25:21.179Z,24.02
2022-08-16T05:30:35.322Z,33.00
2022-08-16T05:33:09.107Z,22.83
2022-08-16T05:38:33.114Z,25.48
2022-08-16T05:40:59.637Z,22.50
2022-08-16T05:43:32.200Z,24.63
2022-08-16T05:46:30.574Z,21.75
2022-08-16T05:49:16.693Z,28.73
2022-08-16T05:51:48.958Z,22.23
2022-08-16T05:54:20.267Z,27.05
2022-08-16T05:56:55.812Z,25.83
2022-08-16T05:59:23.281Z,22.40
2022-08-16T06:01:52.199Z,22.13
2022-08-16T06:06:57.022Z,24.48
2022-08-16T06:09:25.271Z,27.17
2022-08-16T06:16:43.498Z,33.30
2022-08-16T06:19:10.553Z,31.42
2022-08-16T06:21:42.792Z,28.70
2022-08-16T06:24:52.543Z,34.67
2022-08-16T06:26:57.835Z,29.65
2022-08-16T06:29:28.646Z,35.15
2022-08-16T06:31:55.439Z,29.73
2022-08-16T06:34:31.568Z,35.25
2022-08-16T06:42:02.552Z,34.83
2022-08-16T06:44:58.616Z,40.97
2022-08-16T06:47:57.064Z,41.80
2022-08-16T06:50:28.875Z,47.03
2022-08-16T06:53:01.157Z,42.70
2022-08-16T06:55:38.114Z,39.05
2022-08-16T06:58:22.454Z,46.53
2022-08-16T07:00:58.077Z,44.33
2022-08-16T07:03:32.355Z,36.92
2022-08-16T07:11:10.153Z,23.52
2022-08-16T07:14:00.252Z,28.45
2022-08-16T07:16:27.777Z,29.33
2022-08-16T07:21:22.573Z,23.67
2022-08-16T07:23:50.090Z,27.70
2022-08-16T07:26:25.766Z,28.23
2022-08-16T07:28:55.982Z,29.38
2022-08-16T07:31:22.656Z,25.00
2022-08-16T07:33:53.451Z,29.13
2022-08-16T07:36:30.893Z,33.55
2022-08-16T07:43:49.926Z,28.35
2022-08-16T07:46:39.671Z,23.90
2022-08-16T07:54:09.494Z,26.35
2022-08-16T07:56:43.122Z,22.65
2022-08-16T07:59:10.671Z,22.40
2022-08-16T08:01:38.507Z,20.52
2022-08-16T08:06:32.507Z,19.10
2022-08-16T08:09:05.127Z,20.52
2022-08-16T08:14:03.665Z,24.45
2022-08-16T08:16:35.634Z,29.25
2022-08-16T08:19:03.126Z,23.30
2022-08-16T08:21:58.482Z,20.02
2022-08-16T08:26:49.918Z,23.08
2022-08-16T08:29:22.874Z,24.35
2022-08-16T08:31:52.146Z,22.15
2022-08-16T08:34:21.211Z,21.52
2022-08-16T08:36:50.207Z,27.13
2022-08-16T08:39:21.379Z,24.70
2022-08-16T08:41:49.260Z,23.23
2022-08-16T08:44:29.130Z,24.67
2022-08-16T08:47:00.592Z,25.35
2022-08-16T08:49:46.371Z,22.40
2022-08-16T08:54:39.812Z,23.52
2022-08-16T08:57:07.508Z,32.83
2022-08-16T09:07:07.763Z,21.52
2022-08-16T09:09:37.809Z,21.88
2022-08-16T09:12:08.456Z,21.73
2022-08-16T09:14:55.045Z,24.30
2022-08-16T09:17:45.643Z,21.90
2022-08-16T09:20:09.558Z,20.27
2022-08-16T09:22:40.464Z,16.73
2022-08-16T09:25:09.872Z,19.85
2022-08-16T09:27:56.989Z,18.00
2022-08-16T09:30:33.781Z,19.63
2022-08-16T09:33:06.826Z,18.20
2022-08-16T09:35:37.307Z,16.75
2022-08-16T09:38:08.675Z,21.63
2022-08-16T09:40:42.329Z,11.40
2022-08-16T09:43:25.914Z,17.90
2022-08-16T09:45:58.094Z,23.98
2022-08-16T09:48:43.956Z,14.38
2022-08-16T09:51:12.351Z,16.95
2022-08-16T09:53:39.473Z,21.58
2022-08-16T09:56:14.851Z,15.35
2022-08-16T09:59:04.825Z,17.42
2022-08-16T10:01:33.406Z,17.48
2022-08-16T10:04:02.202Z,14.52
2022-08-16T10:06:33.825Z,15.10
2022-08-16T10:09:08.489Z,15.88
2022-08-16T10:12:11.133Z,15.18
2022-08-16T10:14:38.812Z,14.35
2022-08-16T10:17:06.291Z,14.55
2022-08-16T10:19:33.795Z,16.88
2022-08-16T10:22:04.865Z,19.27
2022-08-16T10:24:32.765Z,16.52
2022-08-16T10:27:26.802Z,21.50
2022-08-16T10:29:59.979Z,13.75
2022-08-16T10:32:30.504Z,12.93
2022-08-16T10:37:32.686Z,11.52
2022-08-16T10:40:29.529Z,17.08
2022-08-16T10:42:54.388Z,11.15
2022-08-16T10:45:21.040Z,10.13
2022-08-16T10:47:49.607Z,9.65
2022-08-16T10:52:59.243Z,10.07
2022-08-16T10:55:45.369Z,10.13
2022-08-16T11:00:40.907Z,12.73
2022-08-16T11:03:42.308Z,8.65
2022-08-16T11:16:01.215Z,12.43
2022-08-16T11:20:56.311Z,11.43
2022-08-16T11:23:23.520Z,8.30
2022-08-16T11:26:20.538Z,9.45
2022-08-16T11:33:52.608Z,11.43
2022-08-16T11:36:22.579Z,8.90
2022-08-16T11:41:17.680Z,12.88
2022-08-16T11:43:46.976Z,10.27
2022-08-16T11:51:06.421Z,10.90
2022-08-16T11:53:35.890Z,10.70
2022-08-16T11:58:29.008Z,6.13
2022-08-16T12:00:57.752Z,9.57
2022-08-16T12:05:51.953Z,11.43
2022-08-16T12:08:22.443Z,10.30
2022-08-16T12:10:53.356Z,9.57
2022-08-16T12:13:20.097Z,6.40
2022-08-16T12:15:48.168Z,7.82
2022-08-16T12:18:20.763Z,7.32
2022-08-16T12:20:48.371Z,7.45
2022-08-16T12:23:17.370Z,5.85
2022-08-16T12:30:38.841Z,5.25
2022-08-16T12:33:06.729Z,9.93
2022-08-16T12:35:34.159Z,9.10
2022-08-16T12:38:01.157Z,8.48
2022-08-16T12:40:49.378Z,11.85
2022-08-16T12:43:23.602Z,16.17
2022-08-16T12:45:52.166Z,6.70
2022-08-16T12:48:38.206Z,8.77
2022-08-16T12:51:13.791Z,7.03
2022-08-16T12:53:46.265Z,8.05
2022-08-16T12:58:48.455Z,5.25
2022-08-16T13:01:18.640Z,6.72
2022-08-16T13:03:45.631Z,11.57
2022-08-16T13:06:13.302Z,18.05
2022-08-16T13:08:46.760Z,6.97
2022-08-16T13:11:14.534Z,5.70
2022-08-16T13:13:45.122Z,12.93
2022-08-16T13:16:20.121Z,8.20
2022-08-16T13:18:51.602Z,5.65
2022-08-16T13:23:45.743Z,4.45
2022-08-16T13:26:12.860Z,9.57
2022-08-16T13:28:47.002Z,7.40
2022-08-16T13:31:16.024Z,6.65
2022-08-16T13:33:44.008Z,3.83
2022-08-16T13:38:37.844Z,7.25
2022-08-16T13:41:08.669Z,3.88
2022-08-16T13:43:35.856Z,7.18
2022-08-16T13:53:19.340Z,5.13
2022-08-16T13:55:57.945Z,6.15
2022-08-16T13:58:35.635Z,6.63
2022-08-16T14:01:04.647Z,9.40
2022-08-16T14:06:02.684Z,8.10
2022-08-16T14:08:29.608Z,8.80
2022-08-16T14:10:56.333Z,4.40
2022-08-16T14:13:23.083Z,6.43
2022-08-16T14:15:50.113Z,5.20
2022-08-16T14:20:48.267Z,7.82
2022-08-16T14:23:16.242Z,13.00
2022-08-16T14:28:14.031Z,4.60
2022-08-16T14:30:43.547Z,3.75
2022-08-16T14:33:11.969Z,9.80
2022-08-16T14:35:48.812Z,5.57
2022-08-16T14:45:38.832Z,4.07
2022-08-16T14:48:06.272Z,4.53
2022-08-16T14:50:33.886Z,9.23
2022-08-16T14:58:01.766Z,4.25
2022-08-16T15:00:33.155Z,5.65
2022-08-16T15:07:56.199Z,4.30
2022-08-16T15:10:24.314Z,3.80
2022-08-16T15:22:42.952Z,7.78
2022-08-16T15:25:11.998Z,8.55
2022-08-16T15:27:42.241Z,6.18
2022-08-16T15:35:08.767Z,2.97
2022-08-16T15:45:01.335Z,6.65
2022-08-16T15:47:28.516Z,6.40
2022-08-16T15:49:56.081Z,5.00
2022-08-16T15:52:29.437Z,6.40
2022-08-16T15:54:57.248Z,6.70
2022-08-16T15:57:24.777Z,7.28
2022-08-16T16:04:43.943Z,5.88
2022-08-16T16:07:11.383Z,10.23
2022-08-16T16:09:41.341Z,5.85
2022-08-16T16:21:58.246Z,11.82
2022-08-16T16:24:31.414Z,10.95
2022-08-16T16:26:58.316Z,11.95
2022-08-16T16:29:25.398Z,8.23
2022-08-16T16:31:59.671Z,10.48
2022-08-16T16:36:52.967Z,7.30
2022-08-16T16:39:21.024Z,11.43
2022-08-16T16:46:42.992Z,12.20
2022-08-16T16:49:11.284Z,13.57
2022-08-16T16:51:40.900Z,17.08
2022-08-16T16:54:12.824Z,11.52
2022-08-16T16:56:39.756Z,15.68
2022-08-16T16:59:17.174Z,11.20
2022-08-16T17:01:59.448Z,8.30
2022-08-16T17:04:32.434Z,4.40
2022-08-16T17:14:33.180Z,3.20
2022-08-16T17:19:31.663Z,3.95
2022-08-16T17:21:59.104Z,6.93
2022-08-16T17:24:39.820Z,4.43
2022-08-16T17:29:33.065Z,6.72
2022-08-16T17:32:32.522Z,7.32
2022-08-16T17:34:50.774Z,4.95
2022-08-16T17:37:17.811Z,5.80
2022-08-16T17:40:00.613Z,5.43
2022-08-16T17:42:32.543Z,4.25
2022-08-16T17:47:25.096Z,4.45
2022-08-16T17:49:52.186Z,6.80
2022-08-16T17:54:44.820Z,5.68
2022-08-16T17:57:12.503Z,4.65
2022-08-16T17:59:41.187Z,4.00
2022-08-16T18:02:42.978Z,6.20
2022-08-16T18:07:21.454Z,5.82
2022-08-16T18:09:48.181Z,5.68
2022-08-16T18:12:19.855Z,5.90
2022-08-16T18:15:06.472Z,11.95
2022-08-16T18:22:30.238Z,12.60
2022-08-16T18:24:57.879Z,14.27
2022-08-16T18:27:28.604Z,10.38
2022-08-16T18:29:55.542Z,12.32
2022-08-16T18:34:47.769Z,11.02
2022-08-16T18:37:14.464Z,17.35
2022-08-16T18:42:10.907Z,16.83
2022-08-16T18:44:40.849Z,7.93
2022-08-16T18:47:07.877Z,4.78
2022-08-16T18:49:35.476Z,6.05
2022-08-16T18:52:02.983Z,9.55
2022-08-16T18:54:30.085Z,8.85
2022-08-16T18:56:58.224Z,9.48
2022-08-16T18:59:26.532Z,11.18
2022-08-16T19:01:53.386Z,9.02
2022-08-16T19:04:56.349Z,12.95
2022-08-16T19:09:40.323Z,13.23
2022-08-16T19:12:07.225Z,8.35
2022-08-16T19:14:33.956Z,8.07
2022-08-16T19:17:00.644Z,6.82
2022-08-16T19:19:27.347Z,6.53
2022-08-16T19:21:54.011Z,5.00
2022-08-16T19:24:20.671Z,6.50
2022-08-16T19:26:49.618Z,7.18
2022-08-16T19:46:21.594Z,6.78
2022-08-16T19:48:48.311Z,8.43
2022-08-16T19:51:16.567Z,7.53
2022-08-16T19:56:09.565Z,8.40
2022-08-16T19:58:36.890Z,8.70
2022-08-16T20:03:29.119Z,7.80
2022-08-16T20:05:56.695Z,8.02
2022-08-16T20:08:23.458Z,7.18
2022-08-16T20:10:50.623Z,8.73
2022-08-16T20:13:19.000Z,11.95
2022-08-16T20:15:46.911Z,8.35
2022-08-16T20:18:21.558Z,6.68
2022-08-16T20:25:47.570Z,7.07
2022-08-16T20:33:13.159Z,6.68
2022-08-16T20:38:06.957Z,7.22
2022-08-16T20:40:35.330Z,9.07
2022-08-16T20:47:55.974Z,6.72
2022-08-16T20:52:48.588Z,5.28
2022-08-16T20:55:15.473Z,7.30
2022-08-16T20:57:42.146Z,11.13
2022-08-16T21:00:11.071Z,6.82
2022-08-16T21:02:40.902Z,9.25
2022-08-16T21:05:08.436Z,6.40
2022-08-16T21:07:35.894Z,8.88
2022-08-16T21:10:02.557Z,9.52
2022-08-16T21:12:34.571Z,8.85
2022-08-16T21:15:07.578Z,8.40
2022-08-16T21:22:25.196Z,9.43
2022-08-16T21:24:54.017Z,9.75
2022-08-16T21:27:21.079Z,6.28
2022-08-16T21:39:39.942Z,8.68
2022-08-16T21:42:11.362Z,7.13
2022-08-16T21:47:03.666Z,10.27
2022-08-16T21:49:30.374Z,10.93
2022-08-16T21:51:57.131Z,7.22
2022-08-16T21:54:23.841Z,4.70
2022-08-16T21:56:50.490Z,4.28
2022-08-16T21:59:17.185Z,7.15
2022-08-16T22:01:44.035Z,4.15
2022-08-16T22:04:37.546Z,4.32
2022-08-16T22:06:58.723Z,6.13
2022-08-16T22:09:25.541Z,5.15
2022-08-16T22:11:52.191Z,6.10
2022-08-16T22:14:18.824Z,3.92
2022-08-16T22:16:45.481Z,6.95
2022-08-16T22:19:13.300Z,5.55
2022-08-16T22:21:40.043Z,6.20
2022-08-16T22:24:06.943Z,5.85
2022-08-16T22:26:36.794Z,5.55
2022-08-16T22:31:35.399Z,4.15
2022-08-16T22:34:02.697Z,5.32
2022-08-16T22:41:25.412Z,11.57
2022-08-16T22:43:52.510Z,7.05
2022-08-16T22:46:19.723Z,7.18
2022-08-16T22:48:50.174Z,8.10
2022-08-16T22:51:17.592Z,5.00
2022-08-16T22:53:44.327Z,10.40
2022-08-16T22:56:11.006Z,7.13
2022-08-16T22:58:37.743Z,4.93
2022-08-16T23:01:09.777Z,5.78
2022-08-16T23:03:37.051Z,7.13
2022-08-16T23:06:04.147Z,6.55
2022-08-16T23:08:39.397Z,5.85
2022-08-16T23:11:07.620Z,6.72
2022-08-16T23:13:34.343Z,8.15
2022-08-16T23:16:03.267Z,4.90
2022-08-16T23:18:38.410Z,6.55
2022-08-16T23:21:06.933Z,6.35
2022-08-16T23:23:33.613Z,4.88
2022-08-16T23:26:01.274Z,4.22
2022-08-16T23:28:30.470Z,4.40
2022-08-16T23:30:58.119Z,4.28
2022-08-16T23:33:26.387Z,7.00
2022-08-16T23:35:54.628Z,3.58
2022-08-16T23:38:37.723Z,4.63
2022-08-16T23:41:09.134Z,5.30
2022-08-16T23:43:42.123Z,4.32
2022-08-16T23:49:56.135Z,11.00
2022-08-16T23:51:23.928Z,6.38
2022-08-16T23:56:17.940Z,6.75
2022-08-16T23:58:46.042Z,4.15
